sensor_id;sensor_type;location;lat;lon;timestamp;P1;P2;P0
54869;PMS5003;40756;-37.950;145.008;2024-02-23T00:00:03;3;1;
54869;PMS5003;40756;-37.950;145.008;2024-02-23T00:02:34;2;1;
54869;PMS5003;40756;-37.950;145.008;2024-02-23T00:05:03;2;2;
54869;PMS5003;40756;-37.950;145.008;2024-02-23T00:07:33;1;1;
54869;PMS5003;40756;-37.950;145.008;2024-02-23T00:10:02;3;2;
54869;PMS5003;40756;-37.950;145.008;2024-02-23T00:12:33;2;1;
54869;PMS5003;40756;-37.950;145.008;2024-02-23T00:15:02;1;1;
54869;PMS5003;40756;-37.950;145.008;2024-02-23T00:17:32;1;1;
54869;PMS5003;40756;-37.950;145.008;2024-02-23T00:20:01;1;1;
54869;PMS5003;40756;-37.950;145.008;2024-02-23T00:22:32;2;1;
54869;PMS5003;40756;-37.950;145.008;2024-02-23T00:25:02;1;1;
54869;PMS5003;40756;-37.950;145.008;2024-02-23T00:27:31;4;1;
54869;PMS5003;40756;-37.950;145.008;2024-02-23T00:30:01;1;1;
54869;PMS5003;40756;-37.950;145.008;2024-02-23T00:32:30;2;1;
54869;PMS5003;40756;-37.950;145.008;2024-02-23T00:35:00;1;1;
54869;PMS5003;40756;-37.950;145.008;2024-02-23T00:37:29;1;1;
54869;PMS5003;40756;-37.950;145.008;2024-02-23T00:39:59;2;2;
54869;PMS5003;40756;-37.950;145.008;2024-02-23T00:42:28;1;1;
54869;PMS5003;40756;-37.950;145.008;2024-02-23T00:44:58;0;0;
54869;PMS5003;40756;-37.950;145.008;2024-02-23T00:47:28;1;0;
54869;PMS5003;40756;-37.950;145.008;2024-02-23T00:49:57;2;1;
54869;PMS5003;40756;-37.950;145.008;2024-02-23T00:52:27;1;1;
54869;PMS5003;40756;-37.950;145.008;2024-02-23T00:54:56;2;2;
54869;PMS5003;40756;-37.950;145.008;2024-02-23T00:57:26;1;1;
54869;PMS5003;40756;-37.950;145.008;2024-02-23T00:59:56;1;1;
54869;PMS5003;40756;-37.950;145.008;2024-02-23T01:02:26;1;0;
54869;PMS5003;40756;-37.950;145.008;2024-02-23T01:04:56;1;1;
54869;PMS5003;40756;-37.950;145.008;2024-02-23T01:07:25;1;1;
54869;PMS5003;40756;-37.950;145.008;2024-02-23T01:09:55;0;0;
54869;PMS5003;40756;-37.950;145.008;2024-02-23T01:12:24;2;1;
54869;PMS5003;40756;-37.950;145.008;2024-02-23T01:14:54;1;1;
54869;PMS5003;40756;-37.950;145.008;2024-02-23T01:17:23;1;1;
54869;PMS5003;40756;-37.950;145.008;2024-02-23T01:19:53;1;1;
54869;PMS5003;40756;-37.950;145.008;2024-02-23T01:22:23;2;2;
54869;PMS5003;40756;-37.950;145.008;2024-02-23T01:24:52;2;1;
54869;PMS5003;40756;-37.950;145.008;2024-02-23T01:27:21;1;1;
54869;PMS5003;40756;-37.950;145.008;2024-02-23T01:29:51;5;5;
54869;PMS5003;40756;-37.950;145.008;2024-02-23T01:32:22;56;54;
54869;PMS5003;40756;-37.950;145.008;2024-02-23T01:34:51;34;33;
54869;PMS5003;40756;-37.950;145.008;2024-02-23T01:37:20;22;22;
54869;PMS5003;40756;-37.950;145.008;2024-02-23T01:39:50;11;10;
54869;PMS5003;40756;-37.950;145.008;2024-02-23T01:42:19;11;11;
54869;PMS5003;40756;-37.950;145.008;2024-02-23T01:44:49;4;3;
54869;PMS5003;40756;-37.950;145.008;2024-02-23T01:47:18;1;0;
54869;PMS5003;40756;-37.950;145.008;2024-02-23T01:49:48;0;0;
54869;PMS5003;40756;-37.950;145.008;2024-02-23T01:52:18;3;3;
54869;PMS5003;40756;-37.950;145.008;2024-02-23T01:54:48;2;2;
54869;PMS5003;40756;-37.950;145.008;2024-02-23T01:57:17;1;1;
54869;PMS5003;40756;-37.950;145.008;2024-02-23T01:59:48;26;25;
54869;PMS5003;40756;-37.950;145.008;2024-02-23T02:02:17;22;22;
54869;PMS5003;40756;-37.950;145.008;2024-02-23T02:04:47;7;6;
54869;PMS5003;40756;-37.950;145.008;2024-02-23T02:07:17;22;21;
54869;PMS5003;40756;-37.950;145.008;2024-02-23T02:09:47;31;31;
54869;PMS5003;40756;-37.950;145.008;2024-02-23T02:12:26;68;64;
54869;PMS5003;40756;-37.950;145.008;2024-02-23T02:14:56;45;43;
54869;PMS5003;40756;-37.950;145.008;2024-02-23T02:17:25;25;25;
54869;PMS5003;40756;-37.950;145.008;2024-02-23T02:19:54;10;10;
54869;PMS5003;40756;-37.950;145.008;2024-02-23T02:22:26;21;20;
54869;PMS5003;40756;-37.950;145.008;2024-02-23T02:24:56;24;23;
54869;PMS5003;40756;-37.950;145.008;2024-02-23T02:27:25;23;22;
54869;PMS5003;40756;-37.950;145.008;2024-02-23T02:29:54;13;12;
54869;PMS5003;40756;-37.950;145.008;2024-02-23T02:32:23;30;30;
54869;PMS5003;40756;-37.950;145.008;2024-02-23T02:34:53;67;66;
54869;PMS5003;40756;-37.950;145.008;2024-02-23T02:37:22;32;31;
54869;PMS5003;40756;-37.950;145.008;2024-02-23T02:39:52;1;1;
54869;PMS5003;40756;-37.950;145.008;2024-02-23T02:42:21;4;4;
54869;PMS5003;40756;-37.950;145.008;2024-02-23T02:44:51;1;0;
54869;PMS5003;40756;-37.950;145.008;2024-02-23T02:47:20;3;1;
54869;PMS5003;40756;-37.950;145.008;2024-02-23T02:49:50;3;2;
54869;PMS5003;40756;-37.950;145.008;2024-02-23T02:52:19;2;1;
54869;PMS5003;40756;-37.950;145.008;2024-02-23T02:54:49;1;1;
54869;PMS5003;40756;-37.950;145.008;2024-02-23T02:57:18;4;3;
54869;PMS5003;40756;-37.950;145.008;2024-02-23T02:59:48;3;3;
54869;PMS5003;40756;-37.950;145.008;2024-02-23T03:02:17;5;2;
54869;PMS5003;40756;-37.950;145.008;2024-02-23T03:04:48;4;4;
54869;PMS5003;40756;-37.950;145.008;2024-02-23T03:07:18;4;2;
54869;PMS5003;40756;-37.950;145.008;2024-02-23T03:09:48;3;2;
54869;PMS5003;40756;-37.950;145.008;2024-02-23T03:12:17;4;3;
54869;PMS5003;40756;-37.950;145.008;2024-02-23T03:14:46;4;3;
54869;PMS5003;40756;-37.950;145.008;2024-02-23T03:17:16;1;1;
54869;PMS5003;40756;-37.950;145.008;2024-02-23T03:19:51;2;2;
54869;PMS5003;40756;-37.950;145.008;2024-02-23T03:22:20;2;1;
54869;PMS5003;40756;-37.950;145.008;2024-02-23T03:24:50;0;0;
54869;PMS5003;40756;-37.950;145.008;2024-02-23T03:27:19;2;1;
54869;PMS5003;40756;-37.950;145.008;2024-02-23T03:29:55;1;1;
54869;PMS5003;40756;-37.950;145.008;2024-02-23T03:32:24;2;2;
54869;PMS5003;40756;-37.950;145.008;2024-02-23T03:34:54;2;2;
54869;PMS5003;40756;-37.950;145.008;2024-02-23T03:37:23;1;1;
54869;PMS5003;40756;-37.950;145.008;2024-02-23T03:39:53;2;0;
54869;PMS5003;40756;-37.950;145.008;2024-02-23T03:42:22;1;1;
54869;PMS5003;40756;-37.950;145.008;2024-02-23T03:44:52;4;2;
54869;PMS5003;40756;-37.950;145.008;2024-02-23T03:47:21;4;3;
54869;PMS5003;40756;-37.950;145.008;2024-02-23T03:49:51;3;3;
54869;PMS5003;40756;-37.950;145.008;2024-02-23T03:52:20;1;1;
54869;PMS5003;40756;-37.950;145.008;2024-02-23T03:54:50;2;2;
54869;PMS5003;40756;-37.950;145.008;2024-02-23T03:57:19;3;1;
54869;PMS5003;40756;-37.950;145.008;2024-02-23T03:59:53;1;1;
54869;PMS5003;40756;-37.950;145.008;2024-02-23T04:02:23;1;1;
54869;PMS5003;40756;-37.950;145.008;2024-02-23T04:04:53;1;0;
54869;PMS5003;40756;-37.950;145.008;2024-02-23T04:07:22;3;3;
54869;PMS5003;40756;-37.950;145.008;2024-02-23T04:09:52;1;1;
54869;PMS5003;40756;-37.950;145.008;2024-02-23T04:12:21;2;1;
54869;PMS5003;40756;-37.950;145.008;2024-02-23T04:14:51;2;2;
54869;PMS5003;40756;-37.950;145.008;2024-02-23T04:17:20;1;1;
54869;PMS5003;40756;-37.950;145.008;2024-02-23T04:19:50;1;1;
54869;PMS5003;40756;-37.950;145.008;2024-02-23T04:22:19;3;2;
54869;PMS5003;40756;-37.950;145.008;2024-02-23T04:24:49;1;1;
54869;PMS5003;40756;-37.950;145.008;2024-02-23T04:27:18;4;3;
54869;PMS5003;40756;-37.950;145.008;2024-02-23T04:29:48;0;0;
54869;PMS5003;40756;-37.950;145.008;2024-02-23T04:32:17;2;1;
54869;PMS5003;40756;-37.950;145.008;2024-02-23T04:34:47;1;1;
54869;PMS5003;40756;-37.950;145.008;2024-02-23T04:37:16;1;1;
54869;PMS5003;40756;-37.950;145.008;2024-02-23T04:39:46;3;1;
54869;PMS5003;40756;-37.950;145.008;2024-02-23T04:42:15;1;1;
54869;PMS5003;40756;-37.950;145.008;2024-02-23T04:44:45;1;1;
54869;PMS5003;40756;-37.950;145.008;2024-02-23T04:47:14;1;0;
54869;PMS5003;40756;-37.950;145.008;2024-02-23T04:49:44;1;1;
54869;PMS5003;40756;-37.950;145.008;2024-02-23T04:52:13;3;3;
54869;PMS5003;40756;-37.950;145.008;2024-02-23T04:54:43;1;0;
54869;PMS5003;40756;-37.950;145.008;2024-02-23T04:57:12;3;2;
54869;PMS5003;40756;-37.950;145.008;2024-02-23T04:59:42;2;2;
54869;PMS5003;40756;-37.950;145.008;2024-02-23T05:02:11;2;2;
54869;PMS5003;40756;-37.950;145.008;2024-02-23T05:04:40;1;0;
54869;PMS5003;40756;-37.950;145.008;2024-02-23T05:07:11;4;3;
54869;PMS5003;40756;-37.950;145.008;2024-02-23T05:09:40;1;1;
54869;PMS5003;40756;-37.950;145.008;2024-02-23T05:12:10;3;3;
54869;PMS5003;40756;-37.950;145.008;2024-02-23T05:14:39;2;1;
54869;PMS5003;40756;-37.950;145.008;2024-02-23T05:17:09;3;2;
54869;PMS5003;40756;-37.950;145.008;2024-02-23T05:19:38;1;1;
54869;PMS5003;40756;-37.950;145.008;2024-02-23T05:22:08;3;1;
54869;PMS5003;40756;-37.950;145.008;2024-02-23T05:24:37;5;3;
54869;PMS5003;40756;-37.950;145.008;2024-02-23T05:27:07;4;3;
54869;PMS5003;40756;-37.950;145.008;2024-02-23T05:29:37;3;3;
54869;PMS5003;40756;-37.950;145.008;2024-02-23T05:32:06;0;0;
54869;PMS5003;40756;-37.950;145.008;2024-02-23T05:34:36;1;0;
54869;PMS5003;40756;-37.950;145.008;2024-02-23T05:37:06;2;1;
54869;PMS5003;40756;-37.950;145.008;2024-02-23T05:39:36;1;0;
54869;PMS5003;40756;-37.950;145.008;2024-02-23T05:42:05;2;2;
54869;PMS5003;40756;-37.950;145.008;2024-02-23T05:44:35;0;0;
54869;PMS5003;40756;-37.950;145.008;2024-02-23T05:47:04;2;2;
54869;PMS5003;40756;-37.950;145.008;2024-02-23T05:49:34;5;3;
54869;PMS5003;40756;-37.950;145.008;2024-02-23T05:52:03;4;2;
54869;PMS5003;40756;-37.950;145.008;2024-02-23T05:54:33;1;1;
54869;PMS5003;40756;-37.950;145.008;2024-02-23T05:57:02;2;2;
54869;PMS5003;40756;-37.950;145.008;2024-02-23T05:59:32;1;1;
54869;PMS5003;40756;-37.950;145.008;2024-02-23T06:02:01;2;2;
54869;PMS5003;40756;-37.950;145.008;2024-02-23T06:04:32;3;2;
54869;PMS5003;40756;-37.950;145.008;2024-02-23T06:07:01;1;1;
54869;PMS5003;40756;-37.950;145.008;2024-02-23T06:09:31;2;2;
54869;PMS5003;40756;-37.950;145.008;2024-02-23T06:12:01;2;1;
54869;PMS5003;40756;-37.950;145.008;2024-02-23T06:14:30;3;3;
54869;PMS5003;40756;-37.950;145.008;2024-02-23T06:17:00;3;2;
54869;PMS5003;40756;-37.950;145.008;2024-02-23T06:19:29;1;1;
54869;PMS5003;40756;-37.950;145.008;2024-02-23T06:21:59;2;1;
54869;PMS5003;40756;-37.950;145.008;2024-02-23T06:24:29;4;3;
54869;PMS5003;40756;-37.950;145.008;2024-02-23T06:26:58;2;2;
54869;PMS5003;40756;-37.950;145.008;2024-02-23T06:29:27;2;2;
54869;PMS5003;40756;-37.950;145.008;2024-02-23T06:31:57;2;2;
54869;PMS5003;40756;-37.950;145.008;2024-02-23T06:34:27;2;2;
54869;PMS5003;40756;-37.950;145.008;2024-02-23T06:36:56;2;1;
54869;PMS5003;40756;-37.950;145.008;2024-02-23T06:39:25;3;2;
54869;PMS5003;40756;-37.950;145.008;2024-02-23T06:41:55;6;3;
54869;PMS5003;40756;-37.950;145.008;2024-02-23T06:44:25;4;3;
54869;PMS5003;40756;-37.950;145.008;2024-02-23T06:46:54;3;1;
54869;PMS5003;40756;-37.950;145.008;2024-02-23T06:49:24;2;2;
54869;PMS5003;40756;-37.950;145.008;2024-02-23T06:51:53;2;2;
54869;PMS5003;40756;-37.950;145.008;2024-02-23T06:54:23;2;2;
54869;PMS5003;40756;-37.950;145.008;2024-02-23T06:56:52;0;0;
54869;PMS5003;40756;-37.950;145.008;2024-02-23T06:59:22;3;2;
54869;PMS5003;40756;-37.950;145.008;2024-02-23T07:01:51;1;1;
54869;PMS5003;40756;-37.950;145.008;2024-02-23T07:04:21;3;1;
54869;PMS5003;40756;-37.950;145.008;2024-02-23T07:06:50;1;1;
54869;PMS5003;40756;-37.950;145.008;2024-02-23T07:09:20;1;1;
54869;PMS5003;40756;-37.950;145.008;2024-02-23T07:11:50;0;0;
54869;PMS5003;40756;-37.950;145.008;2024-02-23T07:14:20;2;2;
54869;PMS5003;40756;-37.950;145.008;2024-02-23T07:16:50;2;2;
54869;PMS5003;40756;-37.950;145.008;2024-02-23T07:19:19;4;3;
54869;PMS5003;40756;-37.950;145.008;2024-02-23T07:21:49;2;2;
54869;PMS5003;40756;-37.950;145.008;2024-02-23T07:24:18;4;3;
54869;PMS5003;40756;-37.950;145.008;2024-02-23T07:26:48;2;2;
54869;PMS5003;40756;-37.950;145.008;2024-02-23T07:29:17;2;2;
54869;PMS5003;40756;-37.950;145.008;2024-02-23T07:31:47;3;2;
54869;PMS5003;40756;-37.950;145.008;2024-02-23T07:34:16;1;1;
54869;PMS5003;40756;-37.950;145.008;2024-02-23T07:36:46;2;2;
54869;PMS5003;40756;-37.950;145.008;2024-02-23T07:39:18;3;2;
54869;PMS5003;40756;-37.950;145.008;2024-02-23T07:41:48;1;1;
54869;PMS5003;40756;-37.950;145.008;2024-02-23T07:44:17;5;3;
54869;PMS5003;40756;-37.950;145.008;2024-02-23T07:46:47;3;2;
54869;PMS5003;40756;-37.950;145.008;2024-02-23T07:49:16;4;3;
54869;PMS5003;40756;-37.950;145.008;2024-02-23T07:51:46;7;5;
54869;PMS5003;40756;-37.950;145.008;2024-02-23T07:54:15;2;2;
54869;PMS5003;40756;-37.950;145.008;2024-02-23T07:56:45;5;2;
54869;PMS5003;40756;-37.950;145.008;2024-02-23T07:59:15;4;3;
54869;PMS5003;40756;-37.950;145.008;2024-02-23T08:01:44;4;3;
54869;PMS5003;40756;-37.950;145.008;2024-02-23T08:04:14;2;2;
54869;PMS5003;40756;-37.950;145.008;2024-02-23T08:06:43;3;3;
54869;PMS5003;40756;-37.950;145.008;2024-02-23T08:09:13;3;3;
54869;PMS5003;40756;-37.950;145.008;2024-02-23T08:11:43;5;1;
54869;PMS5003;40756;-37.950;145.008;2024-02-23T08:14:13;3;3;
54869;PMS5003;40756;-37.950;145.008;2024-02-23T08:16:42;7;5;
54869;PMS5003;40756;-37.950;145.008;2024-02-23T08:19:12;3;2;
54869;PMS5003;40756;-37.950;145.008;2024-02-23T08:21:41;3;1;
54869;PMS5003;40756;-37.950;145.008;2024-02-23T08:24:11;6;5;
54869;PMS5003;40756;-37.950;145.008;2024-02-23T08:26:41;8;6;
54869;PMS5003;40756;-37.950;145.008;2024-02-23T08:29:10;3;3;
54869;PMS5003;40756;-37.950;145.008;2024-02-23T08:31:40;3;2;
54869;PMS5003;40756;-37.950;145.008;2024-02-23T08:34:09;10;5;
54869;PMS5003;40756;-37.950;145.008;2024-02-23T08:36:39;2;2;
54869;PMS5003;40756;-37.950;145.008;2024-02-23T08:39:09;6;4;
54869;PMS5003;40756;-37.950;145.008;2024-02-23T08:41:38;6;2;
54869;PMS5003;40756;-37.950;145.008;2024-02-23T08:44:08;5;4;
54869;PMS5003;40756;-37.950;145.008;2024-02-23T08:46:37;4;4;
54869;PMS5003;40756;-37.950;145.008;2024-02-23T08:49:07;6;3;
54869;PMS5003;40756;-37.950;145.008;2024-02-23T08:51:36;1;1;
54869;PMS5003;40756;-37.950;145.008;2024-02-23T08:54:06;4;4;
54869;PMS5003;40756;-37.950;145.008;2024-02-23T08:56:37;4;3;
54869;PMS5003;40756;-37.950;145.008;2024-02-23T08:59:07;4;3;
54869;PMS5003;40756;-37.950;145.008;2024-02-23T09:01:36;4;2;
54869;PMS5003;40756;-37.950;145.008;2024-02-23T09:04:06;1;1;
54869;PMS5003;40756;-37.950;145.008;2024-02-23T09:06:36;5;5;
54869;PMS5003;40756;-37.950;145.008;2024-02-23T09:09:05;3;3;
54869;PMS5003;40756;-37.950;145.008;2024-02-23T09:11:34;4;4;
54869;PMS5003;40756;-37.950;145.008;2024-02-23T09:14:04;2;1;
54869;PMS5003;40756;-37.950;145.008;2024-02-23T09:16:34;2;2;
54869;PMS5003;40756;-37.950;145.008;2024-02-23T09:19:04;3;2;
54869;PMS5003;40756;-37.950;145.008;2024-02-23T09:21:34;6;5;
54869;PMS5003;40756;-37.950;145.008;2024-02-23T09:24:05;6;4;
54869;PMS5003;40756;-37.950;145.008;2024-02-23T09:26:35;4;4;
54869;PMS5003;40756;-37.950;145.008;2024-02-23T09:29:04;7;6;
54869;PMS5003;40756;-37.950;145.008;2024-02-23T09:31:34;5;3;
54869;PMS5003;40756;-37.950;145.008;2024-02-23T09:34:03;4;4;
54869;PMS5003;40756;-37.950;145.008;2024-02-23T09:36:33;7;2;
54869;PMS5003;40756;-37.950;145.008;2024-02-23T09:39:02;5;4;
54869;PMS5003;40756;-37.950;145.008;2024-02-23T09:41:32;3;2;
54869;PMS5003;40756;-37.950;145.008;2024-02-23T09:44:02;3;3;
54869;PMS5003;40756;-37.950;145.008;2024-02-23T09:46:31;4;2;
54869;PMS5003;40756;-37.950;145.008;2024-02-23T09:49:01;3;1;
54869;PMS5003;40756;-37.950;145.008;2024-02-23T09:51:32;1;1;
54869;PMS5003;40756;-37.950;145.008;2024-02-23T09:54:03;2;2;
54869;PMS5003;40756;-37.950;145.008;2024-02-23T09:56:33;3;2;
54869;PMS5003;40756;-37.950;145.008;2024-02-23T09:59:03;5;3;
54869;PMS5003;40756;-37.950;145.008;2024-02-23T10:01:32;4;3;
54869;PMS5003;40756;-37.950;145.008;2024-02-23T10:04:02;3;3;
54869;PMS5003;40756;-37.950;145.008;2024-02-23T10:06:32;3;3;
54869;PMS5003;40756;-37.950;145.008;2024-02-23T10:09:01;2;1;
54869;PMS5003;40756;-37.950;145.008;2024-02-23T10:11:31;3;2;
54869;PMS5003;40756;-37.950;145.008;2024-02-23T10:14:00;0;0;
54869;PMS5003;40756;-37.950;145.008;2024-02-23T10:16:30;3;3;
54869;PMS5003;40756;-37.950;145.008;2024-02-23T10:19:01;1;1;
54869;PMS5003;40756;-37.950;145.008;2024-02-23T10:21:32;3;1;
54869;PMS5003;40756;-37.950;145.008;2024-02-23T10:24:01;1;1;
54869;PMS5003;40756;-37.950;145.008;2024-02-23T10:26:32;1;1;
54869;PMS5003;40756;-37.950;145.008;2024-02-23T10:29:02;0;0;
54869;PMS5003;40756;-37.950;145.008;2024-02-23T10:31:31;0;0;
54869;PMS5003;40756;-37.950;145.008;2024-02-23T10:34:03;5;5;
54869;PMS5003;40756;-37.950;145.008;2024-02-23T10:36:36;2;2;
54869;PMS5003;40756;-37.950;145.008;2024-02-23T10:39:09;5;3;
54869;PMS5003;40756;-37.950;145.008;2024-02-23T10:41:44;4;3;
54869;PMS5003;40756;-37.950;145.008;2024-02-23T10:44:19;2;2;
54869;PMS5003;40756;-37.950;145.008;2024-02-23T10:46:49;2;1;
54869;PMS5003;40756;-37.950;145.008;2024-02-23T10:49:20;2;2;
54869;PMS5003;40756;-37.950;145.008;2024-02-23T10:51:53;1;1;
54869;PMS5003;40756;-37.950;145.008;2024-02-23T10:54:23;2;2;
54869;PMS5003;40756;-37.950;145.008;2024-02-23T10:56:53;3;2;
54869;PMS5003;40756;-37.950;145.008;2024-02-23T10:59:22;2;1;
54869;PMS5003;40756;-37.950;145.008;2024-02-23T11:01:52;3;3;
54869;PMS5003;40756;-37.950;145.008;2024-02-23T11:04:24;1;1;
54869;PMS5003;40756;-37.950;145.008;2024-02-23T11:06:55;2;2;
54869;PMS5003;40756;-37.950;145.008;2024-02-23T11:09:24;2;2;
54869;PMS5003;40756;-37.950;145.008;2024-02-23T11:11:54;3;2;
54869;PMS5003;40756;-37.950;145.008;2024-02-23T11:14:32;1;1;
54869;PMS5003;40756;-37.950;145.008;2024-02-23T11:17:04;0;0;
54869;PMS5003;40756;-37.950;145.008;2024-02-23T11:19:34;3;2;
54869;PMS5003;40756;-37.950;145.008;2024-02-23T11:22:08;4;3;
54869;PMS5003;40756;-37.950;145.008;2024-02-23T11:24:42;0;0;
54869;PMS5003;40756;-37.950;145.008;2024-02-23T11:27:13;4;4;
54869;PMS5003;40756;-37.950;145.008;2024-02-23T11:29:43;2;2;
54869;PMS5003;40756;-37.950;145.008;2024-02-23T11:32:14;3;3;
54869;PMS5003;40756;-37.950;145.008;2024-02-23T11:34:54;2;2;
54869;PMS5003;40756;-37.950;145.008;2024-02-23T11:37:24;5;3;
54869;PMS5003;40756;-37.950;145.008;2024-02-23T11:39:57;4;3;
54869;PMS5003;40756;-37.950;145.008;2024-02-23T11:42:28;2;2;
54869;PMS5003;40756;-37.950;145.008;2024-02-23T11:44:58;3;2;
54869;PMS5003;40756;-37.950;145.008;2024-02-23T11:47:29;2;2;
54869;PMS5003;40756;-37.950;145.008;2024-02-23T11:49:59;3;2;
54869;PMS5003;40756;-37.950;145.008;2024-02-23T11:52:28;2;2;
54869;PMS5003;40756;-37.950;145.008;2024-02-23T11:54:58;3;3;
54869;PMS5003;40756;-37.950;145.008;2024-02-23T11:57:28;2;2;
54869;PMS5003;40756;-37.950;145.008;2024-02-23T11:59:57;4;4;
54869;PMS5003;40756;-37.950;145.008;2024-02-23T12:02:28;4;3;
54869;PMS5003;40756;-37.950;145.008;2024-02-23T12:04:57;3;2;
54869;PMS5003;40756;-37.950;145.008;2024-02-23T12:07:26;4;4;
54869;PMS5003;40756;-37.950;145.008;2024-02-23T12:09:57;5;5;
54869;PMS5003;40756;-37.950;145.008;2024-02-23T12:12:26;3;3;
54869;PMS5003;40756;-37.950;145.008;2024-02-23T12:14:56;6;4;
54869;PMS5003;40756;-37.950;145.008;2024-02-23T12:17:26;2;2;
54869;PMS5003;40756;-37.950;145.008;2024-02-23T12:19:58;2;1;
54869;PMS5003;40756;-37.950;145.008;2024-02-23T12:22:28;6;4;
54869;PMS5003;40756;-37.950;145.008;2024-02-23T12:24:57;2;2;
54869;PMS5003;40756;-37.950;145.008;2024-02-23T12:27:27;4;2;
54869;PMS5003;40756;-37.950;145.008;2024-02-23T12:29:57;7;6;
54869;PMS5003;40756;-37.950;145.008;2024-02-23T12:32:27;3;2;
54869;PMS5003;40756;-37.950;145.008;2024-02-23T12:34:56;4;4;
54869;PMS5003;40756;-37.950;145.008;2024-02-23T12:37:26;4;3;
54869;PMS5003;40756;-37.950;145.008;2024-02-23T12:39:55;3;2;
54869;PMS5003;40756;-37.950;145.008;2024-02-23T12:42:25;7;5;
54869;PMS5003;40756;-37.950;145.008;2024-02-23T12:44:54;3;3;
54869;PMS5003;40756;-37.950;145.008;2024-02-23T12:47:24;5;3;
54869;PMS5003;40756;-37.950;145.008;2024-02-23T12:49:53;7;5;
54869;PMS5003;40756;-37.950;145.008;2024-02-23T12:52:23;6;3;
54869;PMS5003;40756;-37.950;145.008;2024-02-23T12:54:53;5;4;
54869;PMS5003;40756;-37.950;145.008;2024-02-23T12:57:23;8;3;
54869;PMS5003;40756;-37.950;145.008;2024-02-23T12:59:52;2;2;
54869;PMS5003;40756;-37.950;145.008;2024-02-23T13:02:22;5;2;
54869;PMS5003;40756;-37.950;145.008;2024-02-23T13:04:53;6;4;
54869;PMS5003;40756;-37.950;145.008;2024-02-23T13:07:22;6;4;
54869;PMS5003;40756;-37.950;145.008;2024-02-23T13:09:52;6;5;
54869;PMS5003;40756;-37.950;145.008;2024-02-23T13:12:22;3;3;
54869;PMS5003;40756;-37.950;145.008;2024-02-23T13:14:51;5;5;
54869;PMS5003;40756;-37.950;145.008;2024-02-23T13:17:20;5;1;
54869;PMS5003;40756;-37.950;145.008;2024-02-23T13:19:50;3;3;
54869;PMS5003;40756;-37.950;145.008;2024-02-23T13:22:20;3;2;
54869;PMS5003;40756;-37.950;145.008;2024-02-23T13:24:49;4;2;
54869;PMS5003;40756;-37.950;145.008;2024-02-23T13:27:19;5;4;
54869;PMS5003;40756;-37.950;145.008;2024-02-23T13:29:48;4;3;
54869;PMS5003;40756;-37.950;145.008;2024-02-23T13:32:18;5;5;
54869;PMS5003;40756;-37.950;145.008;2024-02-23T13:34:48;6;4;
54869;PMS5003;40756;-37.950;145.008;2024-02-23T13:37:17;3;3;
54869;PMS5003;40756;-37.950;145.008;2024-02-23T13:39:47;9;5;
54869;PMS5003;40756;-37.950;145.008;2024-02-23T13:42:16;4;4;
54869;PMS5003;40756;-37.950;145.008;2024-02-23T13:44:46;6;3;
54869;PMS5003;40756;-37.950;145.008;2024-02-23T13:47:15;3;3;
54869;PMS5003;40756;-37.950;145.008;2024-02-23T13:49:45;5;4;
54869;PMS5003;40756;-37.950;145.008;2024-02-23T13:52:14;6;4;
54869;PMS5003;40756;-37.950;145.008;2024-02-23T13:54:45;3;1;
54869;PMS5003;40756;-37.950;145.008;2024-02-23T13:57:15;4;2;
54869;PMS5003;40756;-37.950;145.008;2024-02-23T13:59:44;6;5;
54869;PMS5003;40756;-37.950;145.008;2024-02-23T14:02:14;5;3;
54869;PMS5003;40756;-37.950;145.008;2024-02-23T14:04:43;9;4;
54869;PMS5003;40756;-37.950;145.008;2024-02-23T14:07:13;6;5;
54869;PMS5003;40756;-37.950;145.008;2024-02-23T14:09:43;5;3;
54869;PMS5003;40756;-37.950;145.008;2024-02-23T14:12:13;4;3;
54869;PMS5003;40756;-37.950;145.008;2024-02-23T14:14:42;4;2;
54869;PMS5003;40756;-37.950;145.008;2024-02-23T14:17:12;8;6;
54869;PMS5003;40756;-37.950;145.008;2024-02-23T14:19:41;2;2;
54869;PMS5003;40756;-37.950;145.008;2024-02-23T14:22:11;9;6;
54869;PMS5003;40756;-37.950;145.008;2024-02-23T14:24:41;5;5;
54869;PMS5003;40756;-37.950;145.008;2024-02-23T14:27:10;3;2;
54869;PMS5003;40756;-37.950;145.008;2024-02-23T14:29:40;5;3;
54869;PMS5003;40756;-37.950;145.008;2024-02-23T14:32:14;3;3;
54869;PMS5003;40756;-37.950;145.008;2024-02-23T14:34:44;7;6;
54869;PMS5003;40756;-37.950;145.008;2024-02-23T14:37:14;7;4;
54869;PMS5003;40756;-37.950;145.008;2024-02-23T14:39:43;6;4;
54869;PMS5003;40756;-37.950;145.008;2024-02-23T14:42:13;5;3;
54869;PMS5003;40756;-37.950;145.008;2024-02-23T14:44:42;6;6;
54869;PMS5003;40756;-37.950;145.008;2024-02-23T14:47:12;9;6;
54869;PMS5003;40756;-37.950;145.008;2024-02-23T14:49:41;5;3;
54869;PMS5003;40756;-37.950;145.008;2024-02-23T14:52:11;4;3;
54869;PMS5003;40756;-37.950;145.008;2024-02-23T14:54:42;6;3;
54869;PMS5003;40756;-37.950;145.008;2024-02-23T14:57:11;6;4;
54869;PMS5003;40756;-37.950;145.008;2024-02-23T14:59:41;5;2;
54869;PMS5003;40756;-37.950;145.008;2024-02-23T15:02:10;6;4;
54869;PMS5003;40756;-37.950;145.008;2024-02-23T15:04:44;5;2;
54869;PMS5003;40756;-37.950;145.008;2024-02-23T15:07:15;5;2;
54869;PMS5003;40756;-37.950;145.008;2024-02-23T15:09:44;8;6;
54869;PMS5003;40756;-37.950;145.008;2024-02-23T15:12:14;5;5;
54869;PMS5003;40756;-37.950;145.008;2024-02-23T15:14:44;5;4;
54869;PMS5003;40756;-37.950;145.008;2024-02-23T15:17:13;7;6;
54869;PMS5003;40756;-37.950;145.008;2024-02-23T15:19:42;8;8;
54869;PMS5003;40756;-37.950;145.008;2024-02-23T15:22:11;7;5;
54869;PMS5003;40756;-37.950;145.008;2024-02-23T15:24:41;6;5;
54869;PMS5003;40756;-37.950;145.008;2024-02-23T15:27:11;6;4;
54869;PMS5003;40756;-37.950;145.008;2024-02-23T15:29:40;3;3;
54869;PMS5003;40756;-37.950;145.008;2024-02-23T15:32:10;5;4;
54869;PMS5003;40756;-37.950;145.008;2024-02-23T15:34:40;3;3;
54869;PMS5003;40756;-37.950;145.008;2024-02-23T15:37:10;4;4;
54869;PMS5003;40756;-37.950;145.008;2024-02-23T15:39:39;5;4;
54869;PMS5003;40756;-37.950;145.008;2024-02-23T15:42:09;7;5;
54869;PMS5003;40756;-37.950;145.008;2024-02-23T15:44:38;6;5;
54869;PMS5003;40756;-37.950;145.008;2024-02-23T15:47:08;4;3;
54869;PMS5003;40756;-37.950;145.008;2024-02-23T15:49:38;4;3;
54869;PMS5003;40756;-37.950;145.008;2024-02-23T15:52:07;5;4;
54869;PMS5003;40756;-37.950;145.008;2024-02-23T15:54:37;4;2;
54869;PMS5003;40756;-37.950;145.008;2024-02-23T15:57:06;2;2;
54869;PMS5003;40756;-37.950;145.008;2024-02-23T15:59:36;5;4;
54869;PMS5003;40756;-37.950;145.008;2024-02-23T16:03:10;5;4;
54869;PMS5003;40756;-37.950;145.008;2024-02-23T16:05:40;9;5;
54869;PMS5003;40756;-37.950;145.008;2024-02-23T16:08:11;4;3;
54869;PMS5003;40756;-37.950;145.008;2024-02-23T16:10:40;5;3;
54869;PMS5003;40756;-37.950;145.008;2024-02-23T16:13:10;4;4;
54869;PMS5003;40756;-37.950;145.008;2024-02-23T16:15:39;4;4;